Latest Weather Observations for Nhill Aerodrome

IDV60801

Issued at 5:32 pm EST Wednesday 27 July 2016 (issued every 30 minutes, with the page automatically refreshed every 10 minutes)

About weather observations | Map of weather stations | Latest weather observations for VIC | Other Formats
Station Details ID: 078015 Name: NHILL AERODROME Lat: -36.31 Lon: 141.65 Height: 138.9 m
Data from the previous 72 hours. | See also: Recent months at Nhill Aerodrome
Date/Time
EST
Temp
°C
App
Temp
°C
Dew
Point
°C
Rel
Hum
%
Delta-T
°C
Wind Press
QNH
hPa
Press
MSL
hPa
Rain since
9am
mm
Dir  Spd
km/h
Gust
km/h
Spd
kts
Gust
kts
27/05:30pm 10.5 6.3 5.5 71 2.3 WSW 17 24 9 13 1022.8 1023.0 0.0
27/05:00pm 10.8 6.2 5.6 70 2.4 WSW 19 22 10 12 1022.5 1022.7 0.0
27/04:30pm 11.0 6.4 5.5 69 2.5 WSW 19 24 10 13 1022.3 1022.5 0.0
27/04:00pm 11.2 6.5 5.1 66 2.8 SW 19 26 10 14 1022.1 1022.3 0.0
27/03:30pm 11.1 5.8 5.0 66 2.8 WSW 22 30 12 16 1021.7 1021.9 0.0
27/03:00pm 11.7 5.8 4.0 59 3.5 SW 24 32 13 17 1021.1 1021.3 0.0
27/02:30pm 12.5 6.0 4.5 58 3.7 WSW 28 35 15 19 1020.7 1020.9 0.0
27/02:00pm 11.6 5.6 5.3 65 2.9 SW 26 35 14 19 1020.5 1020.8 0.0
27/01:30pm 10.5 4.0 4.9 68 2.6 SW 28 39 15 21 1020.4 1020.7 0.0
27/01:00pm 10.9 3.4 4.4 64 2.9 SW 33 46 18 25 1020.5 1020.8 0.0
27/12:30pm 10.3 3.4 4.5 67 2.6 SW 30 39 16 21 1020.2 1020.5 0.0
27/12:00pm 10.6 3.7 4.5 66 2.7 WSW 30 39 16 21 1020.3 1020.6 0.0
27/11:30am 10.1 4.2 4.0 66 2.7 SW 24 33 13 18 1019.9 1020.2 0.0
27/11:00am 9.8 2.3 4.4 69 2.4 SW 33 44 18 24 1019.7 1020.0 0.0
27/10:30am 9.7 3.2 4.7 71 2.3 SW 28 37 15 20 1019.2 1019.5 0.0
27/10:00am 9.2 3.3 5.8 79 1.6 SW 26 33 14 18 1018.6 1018.9 0.0
27/09:30am 8.4 3.3 5.9 84 1.1 SW 22 30 12 16 1017.9 1018.1 0.0
27/09:00am 8.0 2.4 5.6 85 1.1 WSW 24 32 13 17 1017.5 1017.7 3.4
27/08:30am 7.7 2.5 5.7 87 0.9 SW 22 32 12 17 1016.8 1017.0 3.4
27/08:00am 7.3 2.1 5.4 88 0.9 SW 22 30 12 16 1015.8 1016.0 3.4
27/07:30am 7.8 2.3 5.9 88 0.9 SW 24 33 13 18 1015.0 1015.2 3.4
27/07:00am 8.0 1.9 6.5 90 0.7 SW 28 39 15 21 1014.5 1014.7 3.4
27/06:30am 8.5 1.2 7.1 91 0.7 SW 35 46 19 25 1013.7 1013.9 3.4
27/06:00am 8.5 2.9 7.1 91 0.7 WSW 26 33 14 18 1012.8 1013.1 3.4
27/05:30am 8.3 2.6 6.9 91 0.7 W 26 35 14 19 1011.9 1012.1 3.4
27/05:00am 8.1 2.4 6.7 91 0.7 W 26 32 14 17 1011.1 1011.3 3.4
27/04:30am 8.2 2.5 6.8 91 0.7 W 26 35 14 19 1010.5 1010.7 3.4
27/04:00am 8.3 2.6 6.6 89 0.8 W 26 35 14 19 1010.1 1010.3 3.4
27/03:30am 8.4 2.7 6.7 89 0.8 W 26 33 14 18 1009.7 1009.9 3.4
27/03:00am 8.0 2.6 6.5 90 0.7 WNW 24 33 13 18 1009.4 1009.6 3.4
27/02:30am 7.9 2.2 6.5 91 0.6 WNW 26 32 14 17 1009.0 1009.2 3.4
27/02:00am 7.9 2.2 6.5 91 0.6 WNW 26 32 14 17 1008.5 1008.7 3.4
27/01:30am 8.2 2.9 6.8 91 0.7 WNW 24 30 13 16 1008.0 1008.2 3.4
27/01:00am 8.4 2.4 6.9 90 0.7 W 28 33 15 18 1007.7 1007.9 3.4
27/12:30am 8.6 1.6 6.9 89 0.8 WNW 33 43 18 23 1007.4 1007.6 3.4
27/12:00am 8.4 1.3 6.5 88 0.9 WNW 33 46 18 25 1006.7 1006.9 3.4
 
Date/Time
EST
Temp
°C
App
Temp
°C
Dew
Point
°C
Rel
Hum
%
Delta-T
°C
Wind Press
QNH
hPa
Press
MSL
hPa
Rain since
9am
mm
Dir  Spd
km/h
Gust
km/h
Spd
kts
Gust
kts
26/11:30pm 8.4 1.9 6.7 89 0.8 WNW 30 41 16 22 1006.4 1006.5 3.4
26/11:00pm 8.5 2.1 7.0 90 0.7 NW 30 44 16 24 1005.9 1006.0 3.4
26/10:30pm 8.4 1.9 6.4 87 0.9 NW 30 39 16 21 1005.5 1005.7 3.2
26/10:00pm 7.9 2.9 6.5 91 0.6 NNW 22 30 12 16 1005.8 1005.9 3.2
26/09:30pm 7.9 2.9 6.5 91 0.6 NNW 22 28 12 15 1005.4 1005.6 3.2
26/09:00pm 8.1 2.3 6.4 89 0.8 NNW 26 39 14 21 1005.7 1005.8 3.2
26/08:33pm 7.9 1.4 6.5 91 0.6 NNW 30 48 16 26 1005.5 1005.7 3.2
26/08:30pm 7.8 1.3 6.4 91 0.6 NNW 30 46 16 25 1005.7 1005.8 3.2
26/08:21pm 8.0 1.9 6.5 90 0.7 NNW 28 46 15 25 1006.1 1006.2 2.2
26/08:00pm 8.2 2.7 6.0 86 1.0 NNW 24 37 13 20 1006.0 1006.1 0.8
26/07:30pm 8.8 2.8 5.2 78 1.6 N 26 41 14 22 1006.0 1006.1 0.6
26/07:00pm 8.8 3.4 4.6 75 1.9 N 22 37 12 20 1006.5 1006.7 0.6
26/06:30pm 8.9 3.5 4.7 75 1.9 N 22 33 12 18 1006.6 1006.8 0.6
26/06:00pm 8.9 3.2 5.1 77 1.7 NNW 24 33 13 18 1007.0 1007.2 0.6
26/05:30pm 9.7 3.2 4.5 70 2.3 NNW 28 39 15 21 1007.6 1007.8 0.6
26/05:00pm 9.9 4.5 4.7 70 2.4 NNW 22 37 12 20 1007.7 1007.9 0.6
26/04:30pm 9.6 4.7 5.2 74 2.0 NNW 20 33 11 18 1008.2 1008.4 0.6
26/04:00pm 9.4 2.7 5.6 77 1.7 NNW 30 46 16 25 1008.7 1008.9 0.6
26/03:30pm 9.5 2.9 6.2 80 1.5 NNW 30 41 16 22 1009.3 1009.5 0.6
26/03:00pm 9.8 5.1 6.0 77 1.8 NNW 20 43 11 23 1009.8 1010.0 0.6
26/02:30pm 8.9 3.1 6.2 83 1.2 NNW 26 37 14 20 1010.3 1010.5 0.4
26/02:00pm 9.0 2.3 5.6 79 1.6 NNW 30 44 16 24 1010.9 1011.1 0.4
26/01:30pm 10.1 4.0 4.7 69 2.4 NNW 26 33 14 18 1011.3 1011.5 0.4
26/01:00pm 10.1 3.1 4.0 66 2.7 NNW 30 41 16 22 1011.8 1012.0 0.4
26/12:30pm 9.9 3.5 5.3 73 2.1 NNW 28 37 15 20 1012.4 1012.7 0.4
26/12:00pm 9.2 2.8 5.2 76 1.8 NW 28 35 15 19 1013.2 1013.4 0.2
26/11:30am 9.4 3.1 5.9 79 1.6 NW 28 37 15 20 1013.4 1013.6 0.2
26/11:00am 8.6 3.0 5.5 81 1.4 NNW 24 33 13 18 1013.9 1014.1 0.2
26/10:30am 8.2 4.1 6.2 87 0.9 NW 17 20 9 11 1014.3 1014.5 0.2
26/10:00am 6.9 2.3 5.4 90 0.7 NW 19 26 10 14 1014.4 1014.6 0.0
26/09:30am 6.9 2.1 5.8 93 0.5 NNW 20 28 11 15 1014.1 1014.3 0.0
26/09:00am 5.9 0.7 5.3 96 0.3 NNW 22 28 12 15 1014.2 1014.4 5.2
26/08:30am 5.1 1.0 4.5 96 0.3 NNW 15 20 8 11 1014.2 1014.4 5.2
26/08:00am 4.6 0.8 4.0 96 0.3 NNW 13 19 7 10 1014.1 1014.3 5.2
26/07:30am 4.0 0.5 3.4 96 0.2 NNW 11 15 6 8 1014.0 1014.2 5.2
26/07:00am 4.0 0.5 3.4 96 0.2 NNW 11 13 6 7 1013.7 1013.9 5.2
26/06:30am 4.2 -0.1 3.5 95 0.3 NNW 15 17 8 9 1013.3 1013.5 5.0
26/06:00am 3.8 -0.2 3.1 95 0.3 NW 13 15 7 8 1013.2 1013.4 5.0
26/05:30am 4.2 -0.1 3.3 94 0.4 NW 15 17 8 9 1013.0 1013.3 5.0
26/05:00am 4.4 0.1 3.5 94 0.4 NW 15 19 8 10 1012.8 1013.1 5.0
26/04:30am 4.4 -0.3 3.2 92 0.5 NW 17 20 9 11 1012.6 1012.9 5.0
26/04:00am 4.9 0.3 3.6 91 0.5 NW 17 22 9 12 1012.7 1013.0 5.0
26/03:30am 5.2 0.6 3.5 89 0.7 WNW 17 24 9 13 1012.9 1013.2 5.0
26/03:00am 5.3 0.3 3.5 88 0.8 WNW 19 26 10 14 1012.9 1013.2 5.0
26/02:30am 4.9 0.2 3.1 88 0.7 WNW 17 22 9 12 1013.3 1013.5 5.0
26/02:00am 5.2 0.1 3.2 87 0.8 WNW 19 22 10 12 1013.0 1013.3 5.0
26/01:30am 5.1 0.4 3.3 88 0.8 WNW 17 26 9 14 1013.0 1013.3 5.0
26/01:00am 5.2 0.5 3.1 86 0.9 NW 17 22 9 12 1012.9 1013.2 5.0
26/12:30am 5.2 0.9 3.1 86 0.9 WNW 15 20 8 11 1012.7 1013.0 5.0
26/12:00am 5.6 0.3 2.9 83 1.1 WNW 20 30 11 16 1012.7 1013.0 5.0
 
Date/Time
EST
Temp
°C
App
Temp
°C
Dew
Point
°C
Rel
Hum
%
Delta-T
°C
Wind Press
QNH
hPa
Press
MSL
hPa
Rain since
9am
mm
Dir  Spd
km/h
Gust
km/h
Spd
kts
Gust
kts
25/11:30pm 5.9 0.6 3.1 82 1.2 WNW 20 30 11 16 1012.5 1012.8 5.0
25/11:00pm 5.6 1.4 3.6 87 0.8 WNW 15 20 8 11 1012.3 1012.5 5.0
25/10:30pm 5.7 1.5 3.7 87 0.8 WNW 15 20 8 11 1012.2 1012.4 5.0
25/10:00pm 6.2 1.6 3.5 83 1.1 WNW 17 22 9 12 1012.0 1012.2 5.0
25/09:30pm 7.3 1.3 3.5 77 1.6 WNW 24 33 13 18 1011.7 1011.9 5.0
25/09:00pm 7.5 0.8 3.7 77 1.6 WNW 28 37 15 20 1011.4 1011.6 5.0
25/08:30pm 7.5 0.0 4.5 81 1.3 W 33 44 18 24 1011.1 1011.3 5.0
25/08:21pm 7.6 -1.4 4.6 81 1.3 W 41 59 22 32 1011.1 1011.3 5.0
25/08:10pm 8.3 2.3 5.4 82 1.3 WNW 26 50 14 27 1011.0 1011.2 4.8
25/08:00pm 8.1 3.5 5.7 85 1.1 WNW 19 26 10 14 1010.5 1010.7 4.8
25/07:30pm 8.7 2.8 5.6 81 1.4 WNW 26 35 14 19 1010.0 1010.2 4.8
25/07:00pm 8.8 2.6 6.1 83 1.2 WNW 28 35 15 19 1009.4 1009.6 4.8
25/06:30pm 9.1 3.0 6.7 85 1.1 W 28 37 15 20 1009.4 1009.6 4.6
25/06:00pm 9.2 2.3 6.6 84 1.2 W 32 44 17 24 1008.6 1008.8 4.6
25/05:30pm 9.2 1.2 7.3 88 0.9 W 39 54 21 29 1008.5 1008.7 4.4
25/05:16pm 9.3 3.4 7.7 90 0.8 W 28 46 15 25 1008.4 1008.6 4.4
25/05:00pm 9.7 3.9 8.1 90 0.8 W 28 37 15 20 1008.1 1008.3 3.6
25/04:37pm 9.9 3.3 8.7 92 0.6 WNW 33 61 18 33 1007.5 1007.7 3.2
25/04:30pm 10.1 3.6 8.9 92 0.6 NW 33 46 18 25 1007.0 1007.2 2.2
25/04:00pm 10.9 1.3 8.0 82 1.4 NW 48 67 26 36 1006.1 1006.2 0.4
25/03:33pm 11.1 1.9 8.0 81 1.5 NW 46 65 25 35 1006.3 1006.4 0.2
25/03:30pm 11.2 1.5 7.7 79 1.7 NW 48 65 26 35 1006.2 1006.3 0.2
25/03:00pm 12.4 2.2 6.9 69 2.7 NW 50 69 27 37 1006.3 1006.4 0.0
25/02:30pm 12.2 2.3 6.7 69 2.6 NW 48 69 26 37 1006.9 1007.1 0.0
25/02:03pm 12.5 4.5 7.4 71 2.5 NNW 39 59 21 32 1007.3 1007.5 0.0
25/02:00pm 12.4 4.8 7.7 73 2.3 NNW 37 50 20 27 1007.4 1007.6 0.0
25/01:30pm 11.9 3.1 7.4 74 2.2 NW 43 61 23 33 1008.3 1008.5 0.0
25/01:20pm 11.9 3.8 7.0 72 2.4 NW 39 57 21 31 1008.3 1008.5 0.0
25/01:00pm 11.8 2.8 7.1 73 2.3 NW 44 57 24 31 1008.7 1008.9 0.0
25/12:30pm 11.7 3.6 6.8 72 2.4 NW 39 57 21 31 1009.7 1009.9 0.0
25/12:15pm 11.6 4.4 7.5 76 2.0 NW 35 54 19 29 1010.2 1010.4 0.0
25/12:00pm 11.8 4.6 7.7 76 2.0 NW 35 48 19 26 1010.2 1010.4 0.0
25/11:30am 11.2 4.4 7.9 80 1.6 NW 33 44 18 24 1010.8 1011.0 0.0
25/11:00am 10.6 3.9 7.3 80 1.6 NW 32 46 17 25 1011.2 1011.4 0.0
25/10:30am 9.6 3.3 7.4 86 1.1 NW 30 37 16 20 1011.8 1012.0 0.0
25/10:00am 8.7 2.6 6.7 87 0.9 NW 28 35 15 19 1011.9 1012.1 0.0
25/09:30am 7.7 2.6 5.8 88 0.9 NW 22 30 12 16 1011.7 1011.9 0.0
25/09:00am 6.5 1.6 5.3 92 0.5 NW 20 24 11 13 1011.9 1012.1 5.6
25/08:30am 5.7 1.3 4.8 94 0.4 NW 17 20 9 11 1011.8 1012.0 5.6
25/08:00am 5.3 0.9 4.6 95 0.3 NW 17 20 9 11 1011.8 1012.0 5.6
25/07:30am 5.5 1.4 4.5 93 0.4 NW 15 17 8 9 1011.5 1011.7 5.6
25/07:00am 6.1 2.5 4.9 92 0.5 WNW 13 17 7 9 1011.2 1011.4 5.6
25/06:30am 6.7 2.0 5.3 91 0.6 WNW 19 20 10 11 1011.1 1011.3 5.6
25/06:00am 7.2 2.7 6.0 92 0.5 WNW 19 24 10 13 1010.9 1011.1 5.6
25/05:30am 7.9 2.9 6.5 91 0.6 W 22 28 12 15 1010.6 1010.8 5.6
25/05:00am 7.9 3.5 6.7 92 0.6 W 19 24 10 13 1010.2 1010.4 5.6
25/04:30am 7.8 2.8 6.4 91 0.6 W 22 32 12 17 1010.0 1010.2 5.6
25/04:00am 8.1 2.8 6.7 91 0.7 W 24 32 13 17 1009.5 1009.7 5.6
25/03:30am 8.0 3.0 6.6 91 0.6 W 22 35 12 19 1009.3 1009.5 5.6
25/03:00am 8.1 2.1 6.9 92 0.6 W 28 39 15 21 1009.1 1009.3 5.6
25/02:30am 8.0 2.0 6.9 93 0.5 WNW 28 35 15 19 1008.5 1008.7 5.4
25/02:00am 7.7 2.8 7.0 95 0.3 WNW 22 35 12 19 1008.1 1008.3 5.4
25/01:30am 6.7 2.0 6.0 95 0.3 NW 20 24 11 13 1007.8 1008.0 5.4
25/01:00am 6.4 1.8 5.7 95 0.3 NW 19 26 10 14 1007.8 1008.0 5.4
25/12:30am 5.8 1.4 4.8 93 0.4 NNW 17 22 9 12 1007.7 1007.9 5.4
25/12:00am 5.9 1.9 4.7 92 0.5 NW 15 20 8 11 1007.7 1007.9 5.4
 
Date/Time
EST
Temp
°C
App
Temp
°C
Dew
Point
°C
Rel
Hum
%
Delta-T
°C
Wind Press
QNH
hPa
Press
MSL
hPa
Rain since
9am
mm
Dir  Spd
km/h
Gust
km/h
Spd
kts
Gust
kts
24/11:30pm 5.9 1.5 4.9 93 0.4 WNW 17 22 9 12 1007.4 1007.6 5.4
24/11:00pm 5.9 2.7 4.9 93 0.4 WNW 11 15 6 8 1007.0 1007.2 5.4
24/10:30pm 6.4 3.2 5.2 92 0.5 W 11 17 6 9 1006.5 1006.7 5.4
24/10:00pm 6.6 2.3 5.1 90 0.7 WNW 17 22 9 12 1006.1 1006.2 5.4
24/09:30pm 7.1 2.2 5.3 88 0.8 WNW 20 30 11 16 1005.5 1005.7 5.4
24/09:00pm 7.6 0.6 5.9 89 0.8 NW 32 43 17 23 1005.1 1005.3 5.2
24/08:30pm 7.3 1.5 6.1 92 0.5 NNW 26 35 14 19 1005.1 1005.3 4.8
24/08:00pm 7.7 2.1 5.3 85 1.1 NW 24 32 13 17 1005.0 1005.2 3.2
24/07:30pm 7.7 1.7 5.3 85 1.1 NW 26 39 14 21 1005.1 1005.3 3.2
24/07:24pm 7.7 0.4 5.3 85 1.1 NW 33 52 18 28 1005.2 1005.4 3.2
24/07:15pm 8.2 0.1 5.1 81 1.4 NW 37 50 20 27 1004.9 1005.1 3.2
24/07:00pm 8.2 2.6 5.5 83 1.2 NW 24 32 13 17 1005.0 1005.2 3.2
24/06:30pm 7.5 1.9 5.3 86 1.0 NW 24 32 13 17 1004.7 1004.9 3.2
24/06:00pm 6.9 0.1 4.9 87 0.9 W 30 37 16 20 1005.1 1005.3 2.0

Other Formats:

Comma delimited format used in spreadsheet applications
http://www.bom.gov.au/fwo/IDV60801/IDV60801.94827.axf

JavaScript Object Notation format (JSON) in row-major order
http://www.bom.gov.au/fwo/IDV60801/IDV60801.94827.json